Henry Post Army Air Field (Fort Sill)
KFSI : now visible

Airfield :











YOU CAN JOIN US ON...

 
LOGIN :

Register | Disclaimer

   EN    FR    IT 

 









Legend :    VFR   Marginal VFR   IFR   Intensive IFR   Very Intensive IFR
Visi :
Ceiling :
>= 8 km
>= 3000ft
5 to 8 km
1000 to 3000 ft
1500m to 5 km
500 to 1000 ft
800 to 1500m
200 to 500 ft
< 800m
< 200 ft
Symbols :   Thunderstorms  Fog  Heavy snow  Heavy precipitations  Wind > 20 kt






- Airport Elevation : 1189 ft


KFSI - Henry Post Army Air Field (Fort Sill)

CURRENT METAR :
  • 181440Z AUTO 26008KT 10SM BKN016 OVC025 24/19 A2984 RMK AO2 SLP096 FZRANO $

EXPIRED METARs :
  • 181355Z AUTO 21012KT 10SM BKN011 OVC017 23/20 A2982 RMK AO2 PRESRR SLP089 T02310202 FZRANO $
  • 181335Z AUTO 19012G18KT 10SM BKN014 23/20 A2980 RMK AO2 SLP082 FZRANO $
  • 181320Z AUTO 21010KT 10SM BKN017 23/20 A2981 RMK AO2 BKN V SCT SLP085 FZRANO $
  • 181310Z AUTO 20011KT 10SM SCT017 23/21 A2980 RMK AO2 SLP082 FZRANO $
  • 181255Z AUTO 20012G18KT 10SM SCT017 BKN022 23/21 A2979 RMK AO2 CIG 017V022 SLP079 T02340209 FZRANO $
  • 181225Z AUTO 19010KT 10SM BKN016 OVC022 23/21 A2979 RMK AO2 SLP078 FZRANO $
  • 181200Z AUTO 19010KT 10SM BKN014 OVC020 23/21 A2978 RMK AO2 BKN V OVC SLP075 FZRANO $
  • 181150Z AUTO 18011KT 10SM BKN015 OVC020 23/21 A2978 RMK AO2 BKN V OVC SLP075 FZRANO $
  • 181155Z AUTO 18011KT 10SM OVC015 23/21 A2978 RMK AO2 OVC V BKN SLP075 T02280207 10232 20212 55003 FZRANO $
  • 181125Z AUTO 18013KT 10SM OVC014 23/21 A2977 RMK AO2 SLP071 FZRANO $
  • 181105Z AUTO 19010KT 10SM BKN015 OVC021 23/21 A2977 RMK AO2 SLP071 FZRANO $
  • 181055Z AUTO 18011KT 10SM BKN014 OVC021 23/21 A2977 RMK AO2 SLP071 T02260205 FZRANO $
  • 180955Z AUTO 18011KT 10SM OVC010 23/21 A2979 RMK AO2 SLP077 T02300207 FZRANO $

Expired Forecast.
KZFW FIR / North America



MET'MAP, your aeronautical weather chart ! - Copyright ORBIFLY December 2007 - Disclaimer

ORBIFLY MET'MAP TEAM :

Programming & Development : Alexandra Zaïnal
Original concept : Baudouin d'Aumeries
Technical & hardware support : Manuel Goepfert
Assistance : Marc-Olivier Méhu




SOURCES & CREDITS :

   NOAA       Earth
Advisory